Westbury, TX

5:54 AM CST on January 17, 2017 (GMT -0600)
MUR145 | | Change Station

Elev 39 ft 30.12 °N, 94.35 °W | Updated 3 hours ago

Overcast
Overcast
68.0 °F
Feels Like 68.0 °F
N
-
Wind Variable Wind from North

Today
High -- | Low -- °F
--% Chance of Precip.
Yesterday
High -- | Low -- °F
Precip. -- in
Pressure 30.03 in
Visibility 7.0 miles
Clouds Overcast 500 ft
Dew Point Not available.
Humidity Not available.
Rainfall in
Snow Depth Not available.
7:13 AM 5:41 PM
Waning Gibbous, 73% visible
METAR KBMT 171135Z AUTO 17005KT 7SM OVC005 22/21 A3003 RMK AO2 T02180207
Pressure 30.03 in
Visibility 7.0 miles
Clouds Overcast 500 ft
Dew Point Not available.
Humidity Not available.
Rainfall in
Snow Depth Not available.
7:13 AM 5:41 PM
Waning Gibbous, 73% visible
METAR KBMT 171135Z AUTO 17005KT 7SM OVC005 22/21 A3003 RMK AO2 T02180207

Get Your Daily Forecast Email!

Thanks for signing up!

Be on the lookout for a verification email in your inbox.

You'll start receiving the daily forecast at 8 AM.

×

10-Day Weather Forecast

Almanac

Astronomy

Jan. 17, 2017 Rise Set
Actual Time
Civil Twilight
Nautical Twilight
Astronomical Twilight
Moon
Length of Visible Light
Length of Day
Tomorrow will be .
, % of the Moon is Illuminated

Today's Extremes

State Highs State Lows

Community

WunderPhotos

Upload Photos

1,962,540 photos uploaded!

WunderBlog® & News

Nearby

Air Quality

  Air Quality AQ Index Pollutant
Not available.

Snow Depth

Station Depth Elevation

Earthquake Activity

City Distance Mag. Time & Date
Minimum magnitude displayed is 2.5.

Coastal Water Temperatures

Place Temperature

Stations

Nearby Weather Stations

Station Location Temp. Windchill Dew Point Humidity Wind Precip. Elev Updated Type
                   

Watches & Warnings

There are currently no watches in effect.